2006 MUKDA (2006262N19069)


On this page: IBTrACS data - Map and Plots - Positions - Intensities - Original source data

Summary

Start Sep 19
End Sep 26
Basin NI
LMI 55 kt
Sources jtwc_io
newdelhi
In WMO? Yes
Previous storm 2006 YAGI (WP)
Previous in basin 2006 MISSING (NI)
Concurrent storms 2006 SHANSHAN (WP)
2006 GORDON (NA)
2006 HELENE (NA)
2006 TWO (EP)
2006 MIRIAM (EP)
2006 YAGI (WP)
2006 MUKDA (NI)
2006 TD0922 (WP)
2006 MISSING (NI)
2006 THREE (EP)
2006 XANGSANE (WP)
Next in basin 2006 MISSING (NI)
Next storm 2006 TD0922 (WP)

top of page IBTrACS Data: File Access

top of page HURSAT Data: File Access

Image of storm

top of page Plots:

Map of storm track will not appear if FTP is down
Time series of cyclone Maximum Sustained Wind will not appear if FTP is down
Time series of cyclone Minimum Central Pressure will not appear if FTP is down

top of page Track Data:Position

jtwc_io newdelhi
Date Lat Lon Lat Lon
2006-09-19 06:00:00 19.4 68.7
2006-09-19 12:00:00 19.4 68.4
2006-09-19 18:00:00 19.3 68.2
2006-09-20 00:00:00 19.3 67.8
2006-09-20 06:00:00 19.4 67.4
2006-09-20 12:00:00 19.5 67.1
2006-09-20 18:00:00 19.6 66.8
2006-09-21 00:00:00 19.6 66.6
2006-09-21 06:00:00 19.6 66.4 19.5 66.0
2006-09-21 12:00:00 19.7 66.3 19.5 66.0
2006-09-21 18:00:00 19.9 66.3 19.5 66.0
2006-09-22 00:00:00 20.0 66.4 20.0 66.0
2006-09-22 06:00:00 20.2 66.5 20.0 66.0
2006-09-22 12:00:00 20.3 66.6 20.5 66.5
2006-09-22 18:00:00 20.4 66.8 20.5 66.5
2006-09-23 00:00:00 20.4 66.9 21.0 67.0
2006-09-23 06:00:00 20.5 67.1 21.0 67.0
2006-09-23 12:00:00 20.3 67.2 21.0 67.0
2006-09-23 18:00:00 20.2 67.1 21.0 67.0
2006-09-24 00:00:00 20.0 67.0 21.0 67.0
2006-09-24 06:00:00 19.8 66.9 21.0 67.0
2006-09-24 12:00:00 19.6 66.9 21.0 67.0
2006-09-24 18:00:00 19.5 66.8
2006-09-25 00:00:00 19.5 66.6
2006-09-25 06:00:00 19.7 66.5
jtwc_io newdelhi
2006-09-25 12:00:00 19.8 66.3
2006-09-25 18:00:00 19.9 66.2
2006-09-26 00:00:00 20.0 66.1
2006-09-26 06:00:00 20.2 65.8
2006-09-26 12:00:00 20.3 65.4

top of pageTrack Data:Intensity

jtwc_io newdelhi
Date Wind Pres Wind Pres
2006-09-19 06:00:00 20. 1004.
2006-09-19 12:00:00 20. 999.
2006-09-19 18:00:00 25. 1002.
2006-09-20 00:00:00 25. 1002.
2006-09-20 06:00:00 25. 1002.
2006-09-20 12:00:00 25. 1002.
2006-09-20 18:00:00 30. 1000.
2006-09-21 00:00:00 30. 1000.
2006-09-21 06:00:00 30. 1000. 30. 1002.
2006-09-21 12:00:00 35. 997. 30. 1000.
2006-09-21 18:00:00 40. 994. 30. 1000.
2006-09-22 00:00:00 45. 991. 40. 996.
2006-09-22 06:00:00 45. 991. 45. 994.
2006-09-22 12:00:00 50. 987. 45. 994.
2006-09-22 18:00:00 50. 987. 45. 990.
2006-09-23 00:00:00 50. 987. 45. 988.
2006-09-23 06:00:00 55. 984. 45. 988.
2006-09-23 12:00:00 45. 991. 50. 988.
2006-09-23 18:00:00 35. 997. 50. 992.
2006-09-24 00:00:00 30. 1000. 40. 994.
2006-09-24 06:00:00 30. 1000. 30. 1000.
2006-09-24 12:00:00 30. 1000. 25. 1004.
2006-09-24 18:00:00 30. 1000.
2006-09-25 00:00:00 30. 1000.
2006-09-25 06:00:00 30. 1000.
jtwc_io newdelhi
2006-09-25 12:00:00 30. 1000.
2006-09-25 18:00:00 25. 1002.
2006-09-26 00:00:00 25. 1002.
2006-09-26 06:00:00 25. 1002.
2006-09-26 12:00:00 25. 1002.

top of page Links to source data

Source Source file Format
jtwc_io bio042006.txt ATCF
newdelhi New_Delhi_Tropical_Cyclone_Track_and_Intensity_Current.csv:Line=2752 New Delhi CSV file (from Excel file)